Silver Knolls, Nevada
Current Conditions -  °F | °C
As of 5:15 PM on Sunday 23 Nov 2014 (Local Time) from KRTS Reporting Station
Overcast Overcast  
Wind Chill: 32°   Ceiling: 8000
Heat Index: 37°   Visibility: 10mi
Dew Point: 25°   Wind: 7mph
Humidity: 60%   Direction: 90°E
Pressure: 30.29"   Gusts: NA
Location:  39.7378°N, 119.889°W
Report Text: KRTS 240115Z AUTO 09006KT 10SM OVC080 03/M04 A3029 RMK AO2
Loading
Personal Weather Stations






























Interactive Weather Map New forecast layout! Learn more

10-Day Weather Forecast

Advertisements
Track Severe Weather on mobile